createdAt,value
2022-07-25T00:02:25.659Z,20.95
2022-07-25T00:04:54.243Z,20.86
2022-07-25T00:07:22.652Z,20.80
2022-07-25T00:09:50.897Z,20.81
2022-07-25T00:12:19.328Z,20.76
2022-07-25T00:14:48.001Z,20.76
2022-07-25T00:17:16.480Z,20.68
2022-07-25T00:19:48.398Z,20.56
2022-07-25T00:22:16.830Z,20.49
2022-07-25T00:24:45.284Z,20.59
2022-07-25T00:27:15.812Z,20.55
2022-07-25T00:29:44.101Z,20.55
2022-07-25T00:32:12.640Z,20.51
2022-07-25T00:34:40.925Z,20.54
2022-07-25T00:37:10.550Z,20.48
2022-07-25T00:39:38.856Z,20.53
2022-07-25T00:42:07.545Z,20.48
2022-07-25T00:44:35.977Z,20.41
2022-07-25T00:47:04.503Z,20.34
2022-07-25T00:49:34.003Z,20.37
2022-07-25T00:52:02.758Z,20.28
2022-07-25T00:54:32.534Z,20.24
2022-07-25T00:57:00.814Z,20.24
2022-07-25T00:59:30.807Z,20.27
2022-07-25T01:01:59.233Z,20.21
2022-07-25T01:04:32.148Z,20.24
2022-07-25T01:07:01.278Z,20.24
2022-07-25T01:09:29.855Z,20.22
2022-07-25T01:11:59.648Z,20.27
2022-07-25T01:14:28.018Z,20.30
2022-07-25T01:16:56.409Z,20.33
2022-07-25T01:19:24.651Z,20.33
2022-07-25T01:21:55.938Z,20.36
2022-07-25T01:24:24.216Z,20.34
2022-07-25T01:26:52.663Z,20.36
2022-07-25T01:29:20.937Z,20.33
2022-07-25T01:31:51.713Z,20.32
2022-07-25T01:34:19.992Z,20.31
2022-07-25T01:36:48.499Z,20.28
2022-07-25T01:39:18.242Z,20.26
2022-07-25T01:41:46.471Z,20.26
2022-07-25T01:44:15.050Z,20.24
2022-07-25T01:46:43.379Z,20.18
2022-07-25T01:49:11.825Z,20.09
2022-07-25T01:51:40.194Z,20.12
2022-07-25T01:54:10.304Z,20.14
2022-07-25T01:56:48.275Z,20.13
2022-07-25T01:59:16.987Z,20.05
2022-07-25T02:01:45.679Z,19.99
2022-07-25T02:04:14.163Z,20.02
2022-07-25T02:06:42.696Z,20.01
2022-07-25T02:09:11.024Z,19.99
2022-07-25T02:11:40.711Z,19.96
2022-07-25T02:14:09.467Z,19.97
2022-07-25T02:16:37.982Z,19.99
2022-07-25T02:19:09.991Z,19.97
2022-07-25T02:21:38.269Z,19.96
2022-07-25T02:24:07.770Z,19.95
2022-07-25T02:26:36.434Z,19.90
2022-07-25T02:29:06.193Z,19.90
2022-07-25T02:31:34.509Z,19.98
2022-07-25T02:34:04.495Z,19.97
2022-07-25T02:36:33.092Z,19.91
2022-07-25T02:39:01.359Z,19.88
2022-07-25T02:41:29.604Z,19.84
2022-07-25T02:43:57.851Z,19.79
2022-07-25T02:46:27.528Z,19.87
2022-07-25T02:48:55.913Z,19.77
2022-07-25T02:51:24.322Z,19.72
2022-07-25T02:53:57.650Z,19.71
2022-07-25T02:56:30.330Z,19.59
2022-07-25T02:59:00.618Z,19.52
2022-07-25T03:01:30.783Z,19.55
2022-07-25T03:03:59.217Z,19.51
2022-07-25T03:06:27.783Z,19.46
2022-07-25T03:08:56.075Z,19.52
2022-07-25T03:11:24.437Z,19.53
2022-07-25T03:13:55.055Z,19.57
2022-07-25T03:16:23.508Z,19.56
2022-07-25T03:18:53.311Z,19.56
2022-07-25T03:21:21.707Z,19.58
2022-07-25T03:23:52.696Z,19.59
2022-07-25T03:26:21.361Z,19.58
2022-07-25T03:28:49.643Z,19.57
2022-07-25T03:31:18.012Z,19.56
2022-07-25T03:33:46.307Z,19.55
2022-07-25T03:36:16.014Z,19.51
2022-07-25T03:38:44.396Z,19.54
2022-07-25T03:41:13.748Z,19.47
2022-07-25T03:43:42.008Z,19.45
2022-07-25T03:46:10.286Z,19.42
2022-07-25T03:48:38.893Z,19.35
2022-07-25T03:51:07.555Z,19.44
2022-07-25T03:53:57.498Z,19.30
2022-07-25T03:56:25.829Z,19.32
2022-07-25T03:58:54.251Z,19.27
2022-07-25T04:01:22.642Z,19.16
2022-07-25T04:03:51.035Z,19.16
2022-07-25T04:06:19.518Z,19.16
2022-07-25T04:08:51.293Z,19.16
2022-07-25T04:11:19.941Z,19.09
2022-07-25T04:13:48.368Z,19.24
2022-07-25T04:16:18.351Z,19.26
2022-07-25T04:18:51.658Z,19.28
2022-07-25T04:21:20.241Z,19.28
2022-07-25T04:23:50.104Z,19.22
2022-07-25T04:26:20.771Z,19.20
2022-07-25T04:28:49.767Z,19.29
2022-07-25T04:31:18.164Z,19.25
2022-07-25T04:33:46.738Z,19.22
2022-07-25T04:36:15.012Z,19.21
2022-07-25T04:38:43.337Z,19.28
2022-07-25T04:41:13.027Z,19.40
2022-07-25T04:43:46.301Z,19.39
2022-07-25T04:46:20.096Z,19.47
2022-07-25T04:48:48.851Z,19.47
2022-07-25T04:51:17.453Z,19.48
2022-07-25T04:53:45.874Z,19.50
2022-07-25T04:56:15.516Z,19.35
2022-07-25T04:58:44.125Z,19.37
2022-07-25T05:01:12.519Z,19.41
2022-07-25T05:03:40.767Z,19.48
2022-07-25T05:06:09.675Z,19.47
2022-07-25T05:08:37.951Z,19.50
2022-07-25T05:11:06.911Z,19.47
2022-07-25T05:13:36.613Z,19.55
2022-07-25T05:16:05.313Z,19.54
2022-07-25T05:18:35.224Z,19.59
2022-07-25T05:21:03.507Z,19.56
2022-07-25T05:23:31.844Z,19.56
2022-07-25T05:26:00.869Z,19.59
2022-07-25T05:28:29.165Z,19.62
2022-07-25T05:30:58.790Z,19.66
2022-07-25T05:33:27.087Z,19.72
2022-07-25T05:35:55.315Z,19.77
2022-07-25T05:38:23.646Z,19.79
2022-07-25T05:40:52.423Z,19.91
2022-07-25T05:43:20.771Z,19.92
2022-07-25T05:45:49.162Z,19.97
2022-07-25T05:48:18.850Z,19.94
2022-07-25T05:50:47.434Z,19.99
2022-07-25T05:53:15.725Z,19.99
2022-07-25T05:55:44.045Z,19.96
2022-07-25T05:58:12.308Z,19.90
2022-07-25T06:00:40.650Z,19.81
2022-07-25T06:03:09.046Z,19.83
2022-07-25T06:05:38.824Z,19.82
2022-07-25T06:08:07.421Z,19.77
2022-07-25T06:10:35.780Z,19.79
2022-07-25T06:13:05.761Z,19.89
2022-07-25T06:15:36.369Z,19.87
2022-07-25T06:18:04.864Z,19.76
2022-07-25T06:20:33.136Z,19.87
2022-07-25T06:23:03.888Z,19.99
2022-07-25T06:25:32.440Z,20.06
2022-07-25T06:28:01.170Z,20.18
2022-07-25T06:30:29.663Z,20.21
2022-07-25T06:32:58.004Z,20.28
2022-07-25T06:35:26.678Z,20.42
2022-07-25T06:37:55.006Z,20.81
2022-07-25T06:40:24.892Z,21.00
2022-07-25T06:42:53.252Z,21.44
2022-07-25T06:45:23.519Z,21.96
2022-07-25T06:47:53.325Z,22.21
2022-07-25T06:50:21.773Z,22.25
2022-07-25T06:52:50.513Z,22.14
2022-07-25T06:55:19.129Z,21.97
2022-07-25T06:57:48.834Z,21.97
2022-07-25T07:00:17.431Z,21.85
2022-07-25T07:02:53.546Z,21.77
2022-07-25T07:05:22.493Z,21.46
2022-07-25T07:07:51.194Z,21.25
2022-07-25T07:10:20.644Z,21.23
2022-07-25T07:12:51.329Z,21.30
2022-07-25T07:15:19.992Z,21.33
2022-07-25T07:17:48.280Z,21.59
2022-07-25T07:20:16.551Z,21.88
2022-07-25T07:22:46.063Z,22.05
2022-07-25T07:25:15.427Z,22.09
2022-07-25T07:27:44.388Z,22.01
2022-07-25T07:30:16.843Z,21.85
2022-07-25T07:32:48.495Z,22.06
2022-07-25T07:35:19.092Z,21.99
2022-07-25T07:37:48.147Z,22.19
2022-07-25T07:40:18.242Z,22.83
2022-07-25T07:42:47.801Z,23.42
2022-07-25T07:45:19.865Z,23.81
2022-07-25T07:47:49.096Z,24.11
2022-07-25T07:50:18.687Z,23.91
2022-07-25T07:52:47.477Z,23.29
2022-07-25T07:55:34.816Z,22.75
2022-07-25T07:58:03.471Z,21.92
2022-07-25T08:00:35.135Z,21.54
2022-07-25T08:03:04.993Z,21.48
2022-07-25T08:05:35.558Z,21.34
2022-07-25T08:08:04.209Z,21.83
2022-07-25T08:10:35.003Z,22.06
2022-07-25T08:13:04.854Z,22.07
2022-07-25T08:15:34.886Z,22.31
2022-07-25T08:18:04.798Z,22.41
2022-07-25T08:20:45.834Z,22.67
2022-07-25T08:23:14.654Z,22.91
2022-07-25T08:25:43.105Z,22.64
2022-07-25T08:28:11.731Z,22.82
2022-07-25T08:30:42.797Z,23.29
2022-07-25T08:33:13.438Z,23.83
2022-07-25T08:35:46.782Z,24.03
2022-07-25T08:38:15.079Z,24.05
2022-07-25T08:40:43.446Z,24.19
2022-07-25T08:43:13.804Z,24.40
2022-07-25T08:45:47.434Z,24.18
2022-07-25T08:48:18.864Z,23.85
2022-07-25T08:50:48.868Z,23.96
2022-07-25T08:53:35.598Z,24.25
2022-07-25T08:56:12.152Z,24.48
2022-07-25T08:58:44.318Z,24.43
2022-07-25T09:01:14.849Z,24.11
2022-07-25T09:03:43.825Z,24.21
2022-07-25T09:06:17.774Z,24.23
2022-07-25T09:08:56.586Z,24.45
2022-07-25T09:11:32.852Z,24.62
2022-07-25T09:14:02.898Z,24.63
2022-07-25T09:16:40.234Z,24.62
2022-07-25T09:19:11.449Z,24.36
2022-07-25T09:21:40.950Z,24.89
2022-07-25T09:24:16.008Z,24.65
2022-07-25T09:26:49.241Z,24.53
2022-07-25T09:29:22.952Z,25.07
2022-07-25T09:31:53.917Z,25.06
2022-07-25T09:34:34.828Z,24.58
2022-07-25T09:37:04.082Z,24.47
2022-07-25T09:39:46.440Z,24.38
2022-07-25T09:42:19.977Z,24.80
2022-07-25T09:45:00.676Z,24.63
2022-07-25T09:47:31.699Z,24.70
2022-07-25T09:50:00.383Z,24.66
2022-07-25T09:52:29.109Z,24.61
2022-07-25T09:54:57.557Z,24.60
2022-07-25T09:57:26.129Z,24.28
2022-07-25T09:59:56.096Z,23.83
2022-07-25T10:02:35.488Z,23.55
2022-07-25T10:05:13.871Z,23.69
2022-07-25T10:07:45.573Z,23.72
2022-07-25T10:10:25.154Z,23.66
2022-07-25T10:13:09.863Z,23.92
2022-07-25T10:15:48.031Z,23.53
2022-07-25T10:18:20.341Z,23.29
2022-07-25T10:20:51.074Z,23.27
2022-07-25T10:23:21.206Z,23.35
2022-07-25T10:26:01.527Z,23.79
2022-07-25T10:28:39.337Z,23.80
2022-07-25T10:31:17.603Z,24.32
2022-07-25T10:33:52.745Z,24.68
2022-07-25T10:36:22.894Z,24.11
2022-07-25T10:38:53.990Z,23.50
2022-07-25T10:41:26.429Z,22.95
2022-07-25T10:43:58.700Z,22.70
2022-07-25T10:46:30.851Z,22.62
2022-07-25T10:49:05.967Z,22.58
2022-07-25T10:51:39.620Z,23.08
2022-07-25T10:54:15.573Z,23.74
2022-07-25T10:56:57.155Z,24.09
2022-07-25T10:59:30.073Z,23.92
2022-07-25T11:01:58.689Z,24.20
2022-07-25T11:04:28.866Z,24.54
2022-07-25T11:06:57.436Z,23.96
2022-07-25T11:09:29.517Z,24.10
2022-07-25T11:11:59.111Z,24.12
2022-07-25T11:14:32.912Z,24.08
2022-07-25T11:17:13.997Z,24.02
2022-07-25T11:19:45.229Z,24.61
2022-07-25T11:22:13.978Z,25.36
2022-07-25T11:24:44.146Z,25.74
2022-07-25T11:27:15.362Z,25.07
2022-07-25T11:29:43.912Z,24.51
2022-07-25T11:32:13.368Z,24.19
2022-07-25T11:34:45.091Z,24.40
2022-07-25T11:37:14.617Z,24.20
2022-07-25T11:39:45.095Z,23.85
2022-07-25T11:42:17.290Z,23.71
2022-07-25T11:44:48.322Z,23.88
2022-07-25T11:47:28.730Z,24.17
2022-07-25T11:50:00.170Z,24.03
2022-07-25T11:52:31.484Z,24.04
2022-07-25T11:55:01.439Z,24.13
2022-07-25T11:57:31.709Z,24.77
2022-07-25T12:00:01.367Z,25.62
2022-07-25T12:02:37.939Z,25.27
2022-07-25T12:05:10.877Z,25.66
2022-07-25T12:07:40.860Z,25.92
2022-07-25T12:10:12.494Z,25.51
2022-07-25T12:12:49.817Z,25.57
2022-07-25T12:15:21.021Z,25.75
2022-07-25T12:17:49.717Z,26.49
2022-07-25T12:20:21.691Z,26.67
2022-07-25T12:22:51.361Z,26.23
2022-07-25T12:25:20.252Z,25.86
2022-07-25T12:27:49.289Z,25.72
2022-07-25T12:30:18.399Z,25.78
2022-07-25T12:32:46.691Z,25.93
2022-07-25T12:35:15.475Z,26.33
2022-07-25T12:37:45.657Z,26.48
2022-07-25T12:40:15.286Z,25.79
2022-07-25T12:42:44.478Z,25.01
2022-07-25T12:45:13.902Z,24.82
2022-07-25T12:47:43.507Z,25.19
2022-07-25T12:50:11.857Z,26.57
2022-07-25T12:52:40.444Z,26.34
2022-07-25T12:55:12.872Z,26.77
2022-07-25T12:57:41.350Z,26.60
2022-07-25T13:00:13.631Z,25.78
2022-07-25T13:02:42.448Z,26.70
2022-07-25T13:05:11.632Z,27.44
2022-07-25T13:07:39.985Z,26.63
2022-07-25T13:10:10.852Z,26.62
2022-07-25T13:12:39.369Z,25.69
2022-07-25T13:15:08.747Z,25.31
2022-07-25T13:17:37.344Z,25.72
2022-07-25T13:20:06.658Z,26.41
2022-07-25T13:22:35.503Z,25.68
2022-07-25T13:25:04.220Z,26.45
2022-07-25T13:27:33.903Z,26.78
2022-07-25T13:30:02.276Z,26.89
2022-07-25T13:32:31.846Z,27.26
2022-07-25T13:35:00.173Z,27.81
2022-07-25T13:37:29.503Z,27.82
2022-07-25T13:39:57.870Z,27.85
2022-07-25T13:42:26.430Z,28.01
2022-07-25T13:44:56.150Z,27.53
2022-07-25T13:47:28.391Z,26.82
2022-07-25T13:49:58.691Z,26.24
2022-07-25T13:52:26.985Z,26.61
2022-07-25T13:54:55.370Z,27.15
2022-07-25T13:57:23.723Z,28.13
2022-07-25T13:59:52.248Z,27.93
2022-07-25T14:02:22.203Z,26.81
2022-07-25T14:04:50.582Z,26.52
2022-07-25T14:07:18.967Z,25.89
2022-07-25T14:09:47.305Z,25.92
2022-07-25T14:12:16.176Z,25.62
2022-07-25T14:14:44.641Z,25.39
2022-07-25T14:17:13.417Z,24.88
2022-07-25T14:19:43.158Z,24.73
2022-07-25T14:22:11.450Z,25.35
2022-07-25T14:24:39.903Z,26.26
2022-07-25T14:27:08.222Z,27.80
2022-07-25T14:29:38.092Z,25.76
2022-07-25T14:32:07.940Z,24.62
2022-07-25T14:34:37.970Z,24.58
2022-07-25T14:37:08.840Z,24.55
2022-07-25T14:39:37.608Z,24.97
2022-07-25T14:42:06.108Z,25.15
2022-07-25T14:44:34.487Z,25.00
2022-07-25T14:47:11.868Z,25.22
2022-07-25T14:49:41.556Z,25.03
2022-07-25T14:52:12.169Z,24.89
2022-07-25T14:54:41.188Z,24.45
2022-07-25T14:57:10.191Z,24.19
2022-07-25T14:59:38.544Z,24.30
2022-07-25T15:02:06.838Z,25.13
2022-07-25T15:04:35.372Z,25.17
2022-07-25T15:07:03.997Z,24.44
2022-07-25T15:09:34.062Z,24.23
2022-07-25T15:12:02.387Z,24.94
2022-07-25T15:14:30.885Z,24.71
2022-07-25T15:16:59.292Z,24.48
2022-07-25T15:19:27.970Z,24.54
2022-07-25T15:21:56.615Z,24.75
2022-07-25T15:24:29.086Z,24.75
2022-07-25T15:26:59.238Z,24.25
2022-07-25T15:29:28.718Z,23.97
2022-07-25T15:31:57.116Z,23.90
2022-07-25T15:34:25.775Z,24.05
2022-07-25T15:36:56.197Z,23.99
2022-07-25T15:39:24.551Z,25.00
2022-07-25T15:41:52.814Z,25.20
2022-07-25T15:44:22.578Z,24.87
2022-07-25T15:46:50.975Z,26.56
2022-07-25T15:49:19.354Z,28.19
2022-07-25T15:51:47.837Z,30.74
2022-07-25T15:54:16.560Z,27.49
2022-07-25T15:56:45.021Z,25.50
2022-07-25T15:59:14.329Z,24.44
2022-07-25T16:01:44.151Z,24.29
2022-07-25T16:04:13.022Z,24.09
2022-07-25T16:06:41.733Z,23.75
2022-07-25T16:09:12.468Z,23.52
2022-07-25T16:11:40.872Z,23.44
2022-07-25T16:14:10.029Z,23.09
2022-07-25T16:16:39.730Z,22.96
2022-07-25T16:19:10.009Z,22.71
2022-07-25T16:21:39.912Z,22.80
2022-07-25T16:24:09.543Z,22.72
2022-07-25T16:26:38.331Z,22.64
2022-07-25T16:29:07.257Z,22.46
2022-07-25T16:31:36.024Z,22.43
2022-07-25T16:34:04.466Z,22.37
2022-07-25T16:36:36.560Z,22.71
2022-07-25T16:39:05.719Z,23.58
2022-07-25T16:41:34.480Z,23.60
2022-07-25T16:44:02.873Z,23.25
2022-07-25T16:46:31.279Z,22.93
2022-07-25T16:48:59.909Z,22.51
2022-07-25T16:51:28.337Z,22.19
2022-07-25T16:53:58.015Z,21.81
2022-07-25T16:56:26.797Z,21.33
2022-07-25T16:58:55.179Z,21.03
2022-07-25T17:01:24.878Z,20.95
2022-07-25T17:03:53.404Z,21.10
2022-07-25T17:06:21.735Z,21.17
2022-07-25T17:08:50.167Z,21.29
2022-07-25T17:11:19.928Z,21.16
2022-07-25T17:13:48.255Z,21.47
2022-07-25T17:16:16.782Z,21.46
2022-07-25T17:18:45.189Z,21.52
2022-07-25T17:21:15.307Z,21.68
2022-07-25T17:23:43.892Z,21.91
2022-07-25T17:26:12.391Z,21.81
2022-07-25T17:28:42.330Z,21.91
2022-07-25T17:31:10.742Z,21.82
2022-07-25T17:33:39.111Z,21.89
2022-07-25T17:36:07.852Z,21.85
2022-07-25T17:38:36.359Z,21.76
2022-07-25T17:41:05.455Z,21.91
2022-07-25T17:43:33.836Z,22.19
2022-07-25T17:46:03.681Z,22.80
2022-07-25T17:48:32.144Z,22.92
2022-07-25T17:51:00.531Z,22.91
2022-07-25T17:53:28.909Z,22.81
2022-07-25T17:55:57.223Z,22.54
2022-07-25T17:58:25.611Z,22.37
2022-07-25T18:00:56.925Z,22.10
2022-07-25T18:03:30.575Z,21.95
2022-07-25T18:05:58.939Z,21.74
2022-07-25T18:08:30.503Z,21.67
2022-07-25T18:10:58.861Z,21.68
2022-07-25T18:13:27.160Z,21.63
2022-07-25T18:15:55.815Z,21.42
2022-07-25T18:18:24.085Z,21.44
2022-07-25T18:20:54.128Z,21.31
2022-07-25T18:23:23.797Z,21.23
2022-07-25T18:25:52.471Z,21.01
2022-07-25T18:28:21.888Z,21.04
2022-07-25T18:30:50.459Z,20.95
2022-07-25T18:33:19.239Z,20.79
2022-07-25T18:35:47.600Z,20.72
2022-07-25T18:38:17.383Z,20.70
2022-07-25T18:40:45.739Z,20.44
2022-07-25T18:43:14.190Z,20.45
2022-07-25T18:45:46.387Z,20.26
2022-07-25T18:48:14.785Z,20.24
2022-07-25T18:50:43.097Z,20.15
2022-07-25T18:53:11.590Z,20.09
2022-07-25T18:55:42.569Z,20.10
2022-07-25T18:58:15.747Z,20.10
2022-07-25T19:00:44.437Z,20.12
2022-07-25T19:03:12.876Z,20.19
2022-07-25T19:05:41.177Z,20.26
2022-07-25T19:08:09.744Z,20.32
2022-07-25T19:10:38.806Z,20.31
2022-07-25T19:13:08.763Z,20.26
2022-07-25T19:15:37.218Z,20.22
2022-07-25T19:18:05.958Z,20.25
2022-07-25T19:20:34.237Z,20.24
2022-07-25T19:23:02.718Z,20.18
2022-07-25T19:25:33.715Z,20.17
2022-07-25T19:28:02.317Z,20.19
2022-07-25T19:30:32.091Z,20.12
2022-07-25T19:33:00.479Z,20.10
2022-07-25T19:35:28.933Z,20.03
2022-07-25T19:37:57.333Z,20.07
2022-07-25T19:40:25.762Z,20.04
2022-07-25T19:42:54.140Z,19.98
2022-07-25T19:45:22.538Z,19.92
2022-07-25T19:47:52.212Z,19.91
2022-07-25T19:50:20.668Z,19.86
2022-07-25T19:52:49.281Z,19.77
2022-07-25T19:55:17.579Z,19.75
2022-07-25T19:57:46.140Z,19.73
2022-07-25T20:00:15.204Z,19.55
2022-07-25T20:02:43.658Z,19.45
2022-07-25T20:05:13.891Z,19.33
2022-07-25T20:07:42.312Z,19.27
2022-07-25T20:10:13.896Z,19.21
2022-07-25T20:12:46.467Z,19.18
2022-07-25T20:15:15.297Z,19.12
2022-07-25T20:17:45.803Z,19.01
2022-07-25T20:20:15.688Z,18.92
2022-07-25T20:22:44.543Z,18.86
2022-07-25T20:25:16.443Z,18.88
2022-07-25T20:27:44.887Z,18.80
2022-07-25T20:30:14.273Z,18.79
2022-07-25T20:32:42.787Z,18.77
2022-07-25T20:35:11.476Z,18.73
2022-07-25T20:37:41.868Z,18.70
2022-07-25T20:40:12.110Z,18.66
2022-07-25T20:42:40.555Z,18.66
2022-07-25T20:45:10.055Z,18.67
2022-07-25T20:47:38.949Z,18.62
2022-07-25T20:50:09.488Z,18.55
2022-07-25T20:52:40.697Z,18.46
2022-07-25T20:55:09.773Z,18.51
2022-07-25T20:57:38.212Z,18.38
2022-07-25T21:00:07.383Z,18.39
2022-07-25T21:02:35.769Z,18.40
2022-07-25T21:05:04.368Z,18.41
2022-07-25T21:07:32.783Z,18.27
2022-07-25T21:10:02.473Z,18.21
2022-07-25T21:12:32.757Z,18.14
2022-07-25T21:15:02.186Z,18.12
2022-07-25T21:17:30.612Z,18.14
2022-07-25T21:19:58.976Z,18.13
2022-07-25T21:22:27.556Z,18.10
2022-07-25T21:24:55.845Z,18.11
2022-07-25T21:27:25.857Z,17.98
2022-07-25T21:29:54.202Z,17.98
2022-07-25T21:32:23.295Z,17.94
2022-07-25T21:34:51.940Z,17.95
2022-07-25T21:37:20.284Z,17.99
2022-07-25T21:39:48.639Z,17.96
2022-07-25T21:42:17.034Z,17.91
2022-07-25T21:44:46.792Z,17.90
2022-07-25T21:47:15.315Z,17.79
2022-07-25T21:50:01.321Z,17.88
2022-07-25T21:52:34.840Z,17.95
2022-07-25T21:55:04.766Z,17.90
2022-07-25T21:57:33.512Z,17.88
2022-07-25T22:00:03.408Z,17.78
2022-07-25T22:02:43.739Z,17.80
2022-07-25T22:05:12.283Z,17.83
2022-07-25T22:07:40.997Z,17.74
2022-07-25T22:10:11.146Z,17.76
2022-07-25T22:12:40.726Z,17.72
2022-07-25T22:15:12.619Z,17.73
2022-07-25T22:17:49.288Z,17.76
2022-07-25T22:20:18.622Z,17.72
2022-07-25T22:22:47.387Z,17.62
2022-07-25T22:25:15.930Z,17.61
2022-07-25T22:27:44.324Z,17.61
2022-07-25T22:30:19.241Z,17.58
2022-07-25T22:32:48.474Z,17.51
2022-07-25T22:35:19.711Z,17.47
2022-07-25T22:37:48.094Z,17.45
2022-07-25T22:40:16.674Z,17.44
2022-07-25T22:42:45.274Z,17.46
2022-07-25T22:45:15.236Z,17.40
2022-07-25T22:47:46.398Z,17.34
2022-07-25T22:50:14.759Z,17.30
2022-07-25T22:52:43.237Z,17.30
2022-07-25T22:55:11.971Z,17.33
2022-07-25T22:57:40.457Z,17.21
2022-07-25T23:00:11.104Z,17.21
2022-07-25T23:02:41.415Z,17.21
2022-07-25T23:05:10.908Z,17.18
2022-07-25T23:07:39.475Z,17.20
2022-07-25T23:10:08.852Z,17.17
2022-07-25T23:12:37.348Z,17.15
2022-07-25T23:15:06.657Z,17.14
2022-07-25T23:17:35.313Z,17.16
2022-07-25T23:20:06.864Z,17.17
2022-07-25T23:22:35.220Z,17.08
2022-07-25T23:25:03.867Z,17.08
2022-07-25T23:27:33.937Z,17.06
2022-07-25T23:30:04.577Z,17.02
2022-07-25T23:32:33.058Z,16.94
2022-07-25T23:35:01.434Z,16.98
2022-07-25T23:37:32.001Z,17.05
2022-07-25T23:40:00.281Z,16.95
2022-07-25T23:42:31.027Z,16.99
2022-07-25T23:44:59.854Z,16.93
2022-07-25T23:47:39.248Z,17.03
2022-07-25T23:50:08.341Z,17.06
2022-07-25T23:52:38.073Z,17.14
2022-07-25T23:55:07.030Z,17.24
2022-07-25T23:57:35.616Z,17.23
